Weather History for EGUL - July, 2013

Change the Weather History Date:

Sunday, July 28, 2013

  Actual Average (EGSC) Record (EGSC)
Temperature  
Mean Temperature 68 °F -  
Max Temperature 77 °F 72 °F 86 °F (2001)
Min Temperature 60 °F 58 °F 50 °F (1997)
Cooling Degree Days 4    
Growing Degree Days 18 (Base 50)    
Moisture  
Dew Point 60 °F    
Average Humidity 84    
Maximum Humidity 100    
Minimum Humidity 43    
Precipitation  
Precipitation 0.00 in - - ()
Sea Level Pressure  
Sea Level Pressure 29.62 in    
Wind  
Wind Speed 10 mph ()    
Max Wind Speed 25 mph    
Max Gust Speed 33 mph    
Visibility 6.1 miles    
Events Rain    
Averages and records for this station are not official NWS values.
T = Trace of Precipitation, MM = Missing Value Source: Averaged Metar Reports

Daily Weather History Graph

Daily Weather History Graph

Search for Another Location

Airport or City:

Trip Planner

Search our weather history database for the weather conditions in past years. The results will help you decide how hot, cold, wet, or windy it might be!

Date:

Astronomy

Jul. 28, 2013 Rise Set
Actual Time 5:11 AM BST 8:55 PM BST
Civil Twilight 4:28 AM BST 9:38 PM BST
Nautical Twilight 3:29 AM BST 10:37 PM BST
Astronomical Twilight 1:47 AM BST 12:14 AM BST
Moon 11:06 PM BST (7/28) 12:38 PM BST (7/28)
Length of Visible Light 17h 09m
Length of Day
15h 43m
Waning Gibbous, 63% of the Moon is Illuminated
Jul 28
Waning Gibbous
Jul 29
Last Quarter
Aug 6
New
Aug 14
First Quarter
Aug 21
Full

Hourly Weather History & Observations

Time (BST) Temp. Dew Point Humidity Pressure Visibility Wind Dir Wind Speed Gust Speed Precip Events Conditions
12:17 AM 64.4 °F 64.4 °F 100% 29.53 in 5.6 mi Calm Calm - N/A   Overcast
12:20 AM 64.4 °F 64.4 °F 100% 29.53 in 5.6 mi NE 1.2 mph - N/A   Overcast
12:33 AM 64.4 °F 64.4 °F 100% 29.53 in 6.2 mi WSW 1.2 mph - N/A   Overcast
12:39 AM 64.4 °F 64.4 °F 100% 29.53 in 6.2 mi SSW 2.3 mph - N/A   Overcast
12:58 AM 65.1 °F 65.1 °F 100% 29.54 in 6.2 mi SSW 2.3 mph - N/A   Overcast
1:08 AM 64.4 °F 64.4 °F 100% 29.53 in 6.2 mi SSW 3.5 mph - N/A   Overcast
1:19 AM 64.4 °F 64.4 °F 100% 29.53 in 6.2 mi South 3.5 mph - N/A   Mostly Cloudy
1:22 AM 64.4 °F 64.4 °F 100% 29.53 in 6.2 mi SSW 3.5 mph - N/A   Mostly Cloudy
1:53 AM 64.4 °F 64.4 °F 100% 29.53 in 5.6 mi SSW 6.9 mph - N/A   Mostly Cloudy
1:54 AM 64.4 °F 64.4 °F 100% 29.53 in 5.6 mi SSW 6.9 mph - N/A   Mostly Cloudy
1:58 AM 65.3 °F 65.3 °F 100% 29.54 in 5.6 mi SSW 6.9 mph - N/A   Mostly Cloudy
1:59 AM 66.2 °F 66.2 °F 100% 29.53 in 5.6 mi SSW 6.9 mph - N/A   Mostly Cloudy
2:01 AM 66.2 °F 66.2 °F 100% 29.53 in 5.6 mi SW 9.2 mph - N/A   Overcast
2:05 AM 66.2 °F 66.2 °F 100% 29.53 in 5.6 mi SSW 6.9 mph - N/A   Mostly Cloudy
2:11 AM 66.2 °F 66.2 °F 100% 29.53 in 5.6 mi SSW 6.9 mph - N/A   Mostly Cloudy
2:12 AM 66.2 °F 66.2 °F 100% 29.53 in 5.6 mi SSW 8.1 mph - N/A   Mostly Cloudy
2:23 AM 66.2 °F 66.2 °F 100% 29.54 in 5.6 mi SW 16.1 mph 20.7 mph N/A Rain Light Rain
2:33 AM 64.4 °F 64.4 °F 100% 29.54 in 5.6 mi SW 13.8 mph - N/A   Overcast
2:34 AM 64.4 °F 64.4 °F 100% 29.54 in 6.2 mi SW 13.8 mph - N/A Rain Light Rain
2:43 AM 64.4 °F 64.4 °F 100% 29.54 in 6.2 mi SW 16.1 mph - N/A Rain Light Rain
2:47 AM 64.4 °F 64.4 °F 100% 29.54 in 6.2 mi SW 16.1 mph - N/A   Light Drizzle
2:48 AM 64.4 °F 64.4 °F 100% 29.54 in 6.2 mi SW 16.1 mph - N/A   Overcast
2:58 AM 64.4 °F 64.4 °F 100% 29.55 in 6.2 mi SW 25.3 mph 29.9 mph 0.00 in   Overcast
2:59 AM 64.4 °F 64.4 °F 100% 29.54 in 6.2 mi SW 21.9 mph 29.9 mph N/A   Overcast
3:21 AM 62.6 °F 62.6 °F 100% 29.55 in 6.2 mi WSW 16.1 mph 26.5 mph N/A   Overcast
3:37 AM 60.8 °F 60.8 °F 100% 29.55 in 6.2 mi SW 12.7 mph - N/A   Mostly Cloudy
3:44 AM 60.8 °F 60.8 °F 100% 29.55 in 6.2 mi SW 13.8 mph - N/A   Mostly Cloudy
3:58 AM 61.3 °F 61.0 °F 99% 29.57 in 6.2 mi SW 15.0 mph - N/A   Scattered Clouds
4:29 AM 60.8 °F 60.8 °F 100% 29.58 in 6.2 mi SW 18.4 mph 26.5 mph N/A   Mostly Cloudy
4:43 AM 60.8 °F 60.8 °F 100% 29.58 in 6.2 mi SW 18.4 mph - N/A   Mostly Cloudy
4:53 AM 60.8 °F 60.8 °F 100% 29.59 in 6.2 mi SW 18.4 mph 26.5 mph N/A   Overcast
4:58 AM 61.3 °F 60.4 °F 97% 29.60 in 6.2 mi SW 19.6 mph 27.6 mph N/A   Overcast
5:25 AM 60.8 °F 59.0 °F 94% 29.60 in 6.2 mi SW 18.4 mph 27.6 mph N/A   Mostly Cloudy
5:28 AM 60.8 °F 59.0 °F 94% 29.60 in 6.2 mi SW 18.4 mph 27.6 mph N/A   Mostly Cloudy
5:43 AM 60.8 °F 59.0 °F 94% 29.61 in 6.2 mi SW 25.3 mph 33.4 mph N/A   Overcast
5:58 AM 61.3 °F 58.6 °F 91% 29.62 in 6.2 mi SW 20.7 mph 29.9 mph N/A   Overcast
6:20 AM 60.8 °F 59.0 °F 94% 29.62 in 6.2 mi SW 17.3 mph - N/A   Scattered Clouds
6:58 AM 61.9 °F 58.1 °F 87% 29.63 in 6.2 mi SW 21.9 mph 26.5 mph N/A   Clear
7:58 AM 63.1 °F 58.1 °F 84% 29.66 in 6.2 mi WSW 16.1 mph 26.5 mph N/A   Partly Cloudy
8:15 AM 64.4 °F 57.2 °F 77% 29.66 in 6.2 mi WSW 17.3 mph - N/A   Mostly Cloudy
8:19 AM 64.4 °F 57.2 °F 77% 29.66 in 6.2 mi SW 17.3 mph - N/A   Scattered Clouds
8:20 AM 64.4 °F 57.2 °F 77% 29.66 in 6.2 mi SW 18.4 mph - N/A   Mostly Cloudy
8:53 AM 64.4 °F 57.2 °F 77% 29.67 in 6.2 mi SW 17.3 mph - N/A   Scattered Clouds
8:54 AM 64.4 °F 57.2 °F 77% 29.67 in 6.2 mi SW 18.4 mph - N/A   Mostly Cloudy
8:57 AM 64.4 °F 57.2 °F 77% 29.67 in 6.2 mi SW 18.4 mph - N/A   Mostly Cloudy
8:58 AM 64.4 °F 57.2 °F 77% 29.68 in 6.2 mi SW 17.3 mph - N/A   Mostly Cloudy
9:05 AM 66.2 °F 57.2 °F 73% 29.68 in 6.2 mi SW 16.1 mph - N/A   Mostly Cloudy
9:46 AM 68.0 °F 57.2 °F 68% 29.69 in 6.2 mi SW 20.7 mph 26.5 mph N/A   Scattered Clouds
9:58 AM 67.1 °F 57.2 °F 70% 29.70 in 6.2 mi SW 20.7 mph 26.5 mph N/A   Scattered Clouds
10:14 AM 69.8 °F 57.2 °F 64% 29.69 in 6.2 mi SW 17.3 mph - N/A   Mostly Cloudy
10:44 AM 69.8 °F 57.2 °F 64% 29.70 in 6.2 mi SW 19.6 mph - N/A   Mostly Cloudy
10:45 AM 69.8 °F 57.2 °F 64% 29.70 in 6.2 mi WSW 20.7 mph - N/A   Mostly Cloudy
10:46 AM 69.8 °F 57.2 °F 64% 29.70 in 6.2 mi WSW 23.0 mph - N/A   Mostly Cloudy
10:58 AM 69.8 °F 55.8 °F 61% 29.71 in 6.2 mi WSW 19.6 mph 25.3 mph N/A   Mostly Cloudy
11:58 AM 72.9 °F 54.1 °F 52% 29.72 in 6.2 mi SW 19.6 mph 25.3 mph N/A   Mostly Cloudy
12:58 PM 73.0 °F 54.1 °F 51% 29.72 in 6.2 mi SW 18.4 mph 26.5 mph N/A   Scattered Clouds
1:58 PM 76.6 °F 53.6 °F 45% 29.72 in 6.2 mi SW 18.4 mph 28.8 mph N/A   Scattered Clouds
2:58 PM 77.2 °F 52.9 °F 43% 29.72 in 6.2 mi South 12.7 mph 23.0 mph N/A   Scattered Clouds
3:58 PM 75.7 °F 53.4 °F 46% 29.72 in 6.2 mi SSW 18.4 mph - N/A   Mostly Cloudy
4:58 PM 74.3 °F 55.0 °F 51% 29.73 in 6.2 mi SSW 15.0 mph - N/A   Scattered Clouds
5:58 PM 74.3 °F 54.3 °F 50% 29.74 in 6.2 mi SSW 21.9 mph 28.8 mph N/A   Scattered Clouds
6:58 PM 72.5 °F 54.7 °F 53% 29.75 in 6.2 mi SSW 18.4 mph 29.9 mph N/A   Partly Cloudy
7:58 PM 71.8 °F 54.0 °F 53% 29.76 in 6.2 mi South 13.8 mph - N/A   Clear
8:58 PM 69.1 °F 54.0 °F 58% 29.77 in 6.2 mi South 9.2 mph - N/A   Clear
9:58 PM 66.4 °F 54.7 °F 66% 29.78 in 6.2 mi SE 5.8 mph - N/A   Clear
10:58 PM 65.5 °F 55.9 °F 71% 29.78 in 6.2 mi SSE 9.2 mph - N/A   Clear
11:58 PM 64.9 °F 55.9 °F 73% 29.78 in 6.2 mi SSE 6.9 mph - N/A   Partly Cloudy